АЭРОДРОМУУД

ICAO:
ZMUB
Нэр:
УЛААНБААТАР / БУЯНТ-УХАА
Ахц:
475033N 1064603E
010230 ZMUBYNYX
(C0299/20 NOTAMR C0243/20
Q) ZMUB/QKKKK/K /K /K /000/999/4752N10350E999
A) ZMUB B) 2010010230 C) 2011010700 EST
E) CHECKLIST YEAR=2020 0229 0248 0249 0254 0261 0269 0274 0277 0281 0282 0288 0289 0292 0297 0298 LATEST PUBLICATIONS: AIRAC AIP SUP : 01/18 WEF 21 JUN 2018 AIP SUP : 05/20 PUBLICATION DATE 10 SEP 2020 AIRAC AIP AMDT: 08/20 WEF 05 NOV 2020 AIP AMDT : 03/20 PUBLICATION DATE 27 AUG 2020 AIC(SERIES C) : 03/20 PUBLICATION DATE 20 JUL 2020 AIP DATA SET : AIPZM-AMDT01-20 WEF 08 OCT 2020 OBST DATA SET: O-AREA1ZM200618 WEF 18 JUN 2020 O-AREA2ZMCK200618 WEF 18 JUN 2020 O-AREA2ZMUB200730 WEF 10 SEP 2020 O-AREA3ZMCK200618 WEF 18 JUN 2020 O-AREA3ZMUB200618 WEF 18 JUN 2020 TERRAIN DATA SET: T-AREA1ZM200618 WEF 18 JUN 2020 T-AREA2ZMCK200618 WEF 18 JUN 2020 T-AREA2ZMUB200618 WEF 18 JUN 2020 T-AREA3ZMCK200618 WEF 18 JUN 2020 T-AREA3ZMUB200618 WEF 18 JUN 2020 AD MAPPING DATA SET: AMDBZMCK200618 WEF 18 JUN 2020 AMDBZMUB200618 WEF 18 JUN 2020 AMDBZMDZ200618 WEF 18 JUN 2020 IFP DATA SET: IFPZM20 WEF 10 SEP 2020 AIP SUP CHECKLIST: AIP SUP: 01/20, 02/20, 03/20, 04/20, 05/20 AIRAC AIP SUP: 01/18 AIC CHECKLIST: AIC(SERIES C): 02/08, 02/20, 03/20)
- 4 weeks ago -

010220 ZMUBYNYX
(A0572/20 NOTAMR A0518/20
Q) ZMUB/QKKKK/K /K /K /000/999/4752N10350E999
A) ZMUB B) 2010010220 C) 2011010700 EST
E) CHECKLIST YEAR=2019 0246 YEAR=2020 0501 0513 0522 0523 0547 0559 0560 0569 0570 0571 LATEST PUBLICATIONS: AIRAC AIP SUP : 01/18 WEF 21 JUN 2018 AIP SUP : 05/20 PUBLICATION DATE 10 SEP 2020 AIRAC AIP AMDT: 08/20 WEF 05 NOV 2020 AIP AMDT : 03/20 PUBLICATION DATE 27 AUG 2020 AIC(SERIES A) : 06/20 PUBLICATION DATE 13 AUG 2020 AIP DATA SET : AIPZM-AMDT01-20 WEF 08 OCT 2020 OBST DATA SET: O-AREA1ZM200618 WEF 18 JUN 2020 O-AREA2ZMCK200618 WEF 18 JUN 2020 O-AREA2ZMUB200730 WEF 10 SEP 2020 O-AREA3ZMCK200618 WEF 18 JUN 2020 O-AREA3ZMUB200618 WEF 18 JUN 2020 TERRAIN DATA SET: T-AREA1ZM200618 WEF 18 JUN 2020 T-AREA2ZMCK200618 WEF 18 JUN 2020 T-AREA2ZMUB200618 WEF 18 JUN 2020 T-AREA3ZMCK200618 WEF 18 JUN 2020 T-AREA3ZMUB200618 WEF 18 JUN 2020 AD MAPPING DATA SET: AMDBZMCK200618 WEF 18 JUN 2020 AMDBZMUB200618 WEF 18 JUN 2020 AMDBZMDZ200618 WEF 18 JUN 2020 IFP DATA SET: IFPZM20 WEF 10 SEP 2020 AIP SUP CHECKLIST: AIP SUP: 01/20, 02/20, 03/20, 04/20, 05/20 AIRAC AIP SUP: 01/18 AIC CHECKLIST: AIC(SERIES A): 02/17, 04/17, 03/20, 05/20, 06/20)
- 4 weeks ago -

240915 ZMUBYNYX
(A0559/20 NOTAMN
Q) ZMUB/QPDTT/I /BO /A /000/999/4750N10646E005
A) ZMUB B) 2011050000 C) 2011182359
E) TRIGGER NOTAM-PERM AIRAC AIP AMDT 08/20 WEF 05 NOV 2020 CHANGE TO TEXTUAL DESCRIPTION FOR SER 1E OF SID VOR/DME RWY 32 )
- 1 month ago -

150317 ZMUBYNYX
(A0547/20 NOTAMR A0514/20
Q) ZMUB/QFAXX/IV/NBO/A /000/999/4750N10646E005
A) ZMUB B) 2009150317 C) 2010311600
E) AD CLSD FOR INTL SKED FLT DUE TO COVID-19 INFECTION PREVENTION.)
- 1 month ago -

METAR
No records found.
TAF
TAF ZMUB 281350Z 2815/2824 VRB02MPS CAVOK=
- 7 hours ago -

TAF ZMUB 281056Z 2812/2821 16005MPS CAVOK BECMG 2813/2815 VRB02MPS=
- 10 hours ago -

TAF ZMUB 271640Z 2718/2824 VRB02MPS 9999 SCT100 TNM12/2722Z TX10/2807Z=
- 1 day ago -